createdAt,value
2018-02-04T00:01:01.092Z,-0.20
2018-02-04T00:03:28.663Z,-0.20
2018-02-04T00:05:56.251Z,-0.20
2018-02-04T00:08:23.825Z,-0.30
2018-02-04T00:10:51.362Z,-0.30
2018-02-04T00:13:19.822Z,-0.30
2018-02-04T00:15:47.359Z,-0.30
2018-02-04T00:18:14.934Z,-0.20
2018-02-04T00:20:42.516Z,-0.20
2018-02-04T00:23:10.063Z,-0.20
2018-02-04T00:25:37.607Z,-0.20
2018-02-04T00:28:06.239Z,-0.10
2018-02-04T00:30:33.805Z,-0.10
2018-02-04T00:33:01.350Z,-0.10
2018-02-04T00:35:29.061Z,-0.20
2018-02-04T00:37:56.594Z,-0.10
2018-02-04T00:40:24.140Z,-0.10
2018-02-04T00:42:51.731Z,-0.10
2018-02-04T00:45:20.031Z,-0.10
2018-02-04T00:47:47.584Z,-0.10
2018-02-04T00:50:15.926Z,-0.10
2018-02-04T00:52:43.468Z,-0.10
2018-02-04T00:55:11.011Z,-0.10
2018-02-04T00:57:38.609Z,-0.10
2018-02-04T01:00:06.147Z,-0.20
2018-02-04T01:02:34.467Z,-0.20
2018-02-04T01:05:02.051Z,-0.20
2018-02-04T01:07:29.582Z,-0.10
2018-02-04T01:09:57.905Z,-0.10
2018-02-04T01:12:25.696Z,-0.20
2018-02-04T01:14:53.260Z,-0.10
2018-02-04T01:17:20.799Z,-0.20
2018-02-04T01:19:49.155Z,-0.20
2018-02-04T01:22:16.715Z,-0.20
2018-02-04T01:24:44.266Z,-0.20
2018-02-04T01:27:12.042Z,-0.20
2018-02-04T01:29:39.604Z,-0.20
2018-02-04T01:32:07.160Z,-0.20
2018-02-04T01:34:34.741Z,-0.30
2018-02-04T01:37:02.281Z,-0.20
2018-02-04T01:39:29.885Z,-0.20
2018-02-04T01:41:57.471Z,-0.20
2018-02-04T01:44:25.050Z,-0.20
2018-02-04T01:46:52.588Z,-0.20
2018-02-04T01:49:20.169Z,-0.20
2018-02-04T01:51:47.710Z,-0.20
2018-02-04T01:54:16.028Z,-0.10
2018-02-04T01:56:43.610Z,-0.10
2018-02-04T01:59:11.155Z,-0.10
2018-02-04T02:01:38.728Z,-0.10
2018-02-04T02:04:06.330Z,-0.10
2018-02-04T02:06:33.867Z,-0.10
2018-02-04T02:09:01.450Z,-0.10
2018-02-04T02:11:29.143Z,-0.10
2018-02-04T02:13:56.699Z,-0.10
2018-02-04T02:16:24.249Z,-0.10
2018-02-04T02:18:52.590Z,-0.10
2018-02-04T02:21:20.126Z,-0.10
2018-02-04T02:23:47.682Z,0.00
2018-02-04T02:26:16.024Z,0.00
2018-02-04T02:28:43.560Z,0.00
2018-02-04T02:31:11.099Z,0.00
2018-02-04T02:33:39.434Z,0.00
2018-02-04T02:36:06.971Z,0.00
2018-02-04T02:38:35.271Z,0.10
2018-02-04T02:41:02.844Z,0.10
2018-02-04T02:43:30.386Z,0.10
2018-02-04T02:45:58.707Z,0.10
2018-02-04T02:48:26.394Z,0.10
2018-02-04T02:50:53.958Z,0.10
2018-02-04T02:53:21.499Z,0.10
2018-02-04T02:55:49.843Z,0.20
2018-02-04T02:58:17.484Z,0.10
2018-02-04T03:00:45.026Z,0.20
2018-02-04T03:03:13.369Z,0.20
2018-02-04T03:05:40.894Z,0.20
2018-02-04T03:08:09.186Z,0.20
2018-02-04T03:10:37.579Z,0.30
2018-02-04T03:13:05.090Z,0.30
2018-02-04T03:15:32.614Z,0.30
2018-02-04T03:18:00.958Z,0.30
2018-02-04T03:20:28.491Z,0.30
2018-02-04T03:22:56.038Z,0.30
2018-02-04T03:25:24.485Z,0.30
2018-02-04T03:27:52.021Z,0.30
2018-02-04T03:30:19.651Z,0.30
2018-02-04T03:32:48.734Z,0.40
2018-02-04T03:35:16.266Z,0.40
2018-02-04T03:37:43.805Z,0.40
2018-02-04T03:40:11.391Z,0.40
2018-02-04T03:42:39.694Z,0.50
2018-02-04T03:45:08.089Z,0.50
2018-02-04T03:47:35.698Z,0.50
2018-02-04T03:50:03.237Z,0.40
2018-02-04T03:52:30.771Z,0.40
2018-02-04T03:54:59.227Z,0.40
2018-02-04T03:57:26.767Z,0.30
2018-02-04T03:59:55.071Z,0.40
2018-02-04T04:02:22.654Z,0.40
2018-02-04T04:04:50.428Z,0.40
2018-02-04T04:07:17.968Z,0.50
2018-02-04T04:09:45.553Z,0.40
2018-02-04T04:12:13.087Z,0.50
2018-02-04T04:14:41.398Z,0.50
2018-02-04T04:17:08.972Z,0.50
2018-02-04T04:19:36.526Z,0.50
2018-02-04T04:22:04.817Z,0.50
2018-02-04T04:24:33.169Z,0.50
2018-02-04T04:27:00.707Z,0.50
2018-02-04T04:29:28.247Z,0.60
2018-02-04T04:31:56.590Z,0.60
2018-02-04T04:34:24.126Z,0.60
2018-02-04T04:36:51.674Z,0.60
2018-02-04T04:39:20.019Z,0.60
2018-02-04T04:41:47.552Z,0.50
2018-02-04T04:44:15.086Z,0.50
2018-02-04T04:46:42.674Z,0.50
2018-02-04T04:49:10.980Z,0.40
2018-02-04T04:51:38.514Z,0.50
2018-02-04T04:54:06.098Z,0.40
2018-02-04T04:56:34.397Z,0.40
2018-02-04T04:59:02.698Z,0.30
2018-02-04T05:01:30.298Z,0.30
2018-02-04T05:03:57.822Z,0.40
2018-02-04T05:06:26.124Z,0.40
2018-02-04T05:08:54.462Z,0.40
2018-02-04T05:11:21.995Z,0.30
2018-02-04T05:13:49.530Z,0.40
2018-02-04T05:16:17.879Z,0.40
2018-02-04T05:18:45.398Z,0.30
2018-02-04T05:21:13.698Z,0.30
2018-02-04T05:23:42.125Z,0.30
2018-02-04T05:26:09.689Z,0.30
2018-02-04T05:28:37.230Z,0.20
2018-02-04T05:31:05.637Z,0.20
2018-02-04T05:33:33.175Z,0.20
2018-02-04T05:36:01.496Z,0.20
2018-02-04T05:38:29.071Z,0.20
2018-02-04T05:40:56.603Z,0.20
2018-02-04T05:43:24.914Z,0.20
2018-02-04T05:45:53.451Z,0.10
2018-02-04T05:48:20.993Z,0.10
2018-02-04T05:50:48.525Z,0.10
2018-02-04T05:53:16.166Z,0.10
2018-02-04T05:55:43.706Z,0.10
2018-02-04T05:58:11.302Z,0.10
2018-02-04T06:00:38.900Z,0.10
2018-02-04T06:03:06.442Z,0.10
2018-02-04T06:05:33.985Z,0.10
2018-02-04T06:08:01.559Z,0.10
2018-02-04T06:10:29.090Z,0.10
2018-02-04T06:12:56.706Z,0.10
2018-02-04T06:15:24.279Z,0.10
2018-02-04T06:17:51.808Z,0.10
2018-02-04T06:20:20.842Z,0.00
2018-02-04T06:22:48.438Z,0.00
2018-02-04T06:25:15.971Z,0.00
2018-02-04T06:27:44.271Z,-0.10
2018-02-04T06:30:11.859Z,-0.10
2018-02-04T06:32:39.393Z,-0.20
2018-02-04T06:35:07.697Z,-0.30
2018-02-04T06:37:36.040Z,-0.30
2018-02-04T06:40:03.579Z,-0.30
2018-02-04T06:42:31.139Z,-0.40
2018-02-04T06:44:58.747Z,-0.40
2018-02-04T06:47:26.289Z,-0.40
2018-02-04T06:49:54.576Z,-0.40
2018-02-04T06:52:22.161Z,-0.40
2018-02-04T06:54:49.694Z,-0.40
2018-02-04T06:57:18.090Z,-0.30
2018-02-04T06:59:46.500Z,-0.30
2018-02-04T07:02:14.033Z,-0.30
2018-02-04T07:04:41.563Z,-0.30
2018-02-04T07:07:09.416Z,-0.40
2018-02-04T07:09:36.974Z,-0.40
2018-02-04T07:12:04.543Z,-0.40
2018-02-04T07:14:32.887Z,-0.60
2018-02-04T07:17:00.419Z,-0.60
2018-02-04T07:19:27.967Z,-0.60
2018-02-04T07:21:56.315Z,-0.60
2018-02-04T07:24:23.864Z,-0.60
2018-02-04T07:26:51.400Z,-0.50
2018-02-04T07:29:19.813Z,-0.30
2018-02-04T07:31:47.346Z,-0.30
2018-02-04T07:34:14.874Z,-0.20
2018-02-04T07:36:42.463Z,0.20
2018-02-04T07:39:09.991Z,0.50
2018-02-04T07:41:37.543Z,0.50
2018-02-04T07:44:05.890Z,0.50
2018-02-04T07:46:33.475Z,0.50
2018-02-04T07:49:01.009Z,0.50
2018-02-04T07:51:28.586Z,0.50
2018-02-04T07:53:56.118Z,0.50
2018-02-04T07:56:24.437Z,0.40
2018-02-04T07:58:52.064Z,0.40
2018-02-04T08:01:19.590Z,0.40
2018-02-04T08:03:47.143Z,0.30
2018-02-04T08:06:14.716Z,0.30
2018-02-04T08:08:42.251Z,0.30
2018-02-04T08:11:10.571Z,0.30
2018-02-04T08:13:38.250Z,0.30
2018-02-04T08:16:05.788Z,0.30
2018-02-04T08:18:34.090Z,0.50
2018-02-04T08:21:02.438Z,0.60
2018-02-04T08:23:29.991Z,0.60
2018-02-04T08:25:57.527Z,0.60
2018-02-04T08:28:28.394Z,0.60
2018-02-04T08:30:56.050Z,0.70
2018-02-04T08:33:23.590Z,0.70
2018-02-04T08:35:51.918Z,0.80
2018-02-04T08:38:19.450Z,0.10
2018-02-04T08:40:47.066Z,0.90
2018-02-04T08:43:14.646Z,1.00
2018-02-04T08:45:42.166Z,1.10
2018-02-04T08:48:09.694Z,1.10
2018-02-04T08:50:37.262Z,1.20
2018-02-04T08:53:04.799Z,1.30
2018-02-04T08:55:32.345Z,1.40
2018-02-04T08:58:00.690Z,1.60
2018-02-04T09:00:28.219Z,1.60
2018-02-04T09:02:55.782Z,1.70
2018-02-04T09:05:23.362Z,1.80
2018-02-04T09:07:51.660Z,2.00
2018-02-04T09:10:19.963Z,2.10
2018-02-04T09:12:47.543Z,2.10
2018-02-04T09:15:15.071Z,2.20
2018-02-04T09:17:42.603Z,2.20
2018-02-04T09:20:11.747Z,2.30
2018-02-04T09:22:39.274Z,2.30
2018-02-04T09:25:06.806Z,2.30
2018-02-04T09:27:34.390Z,2.30
2018-02-04T09:30:01.923Z,2.30
2018-02-04T09:32:29.458Z,2.20
2018-02-04T09:34:57.071Z,2.20
2018-02-04T09:37:24.603Z,2.20
2018-02-04T09:39:52.126Z,2.20
2018-02-04T09:42:20.501Z,2.20
2018-02-04T09:44:48.058Z,2.20
2018-02-04T09:47:15.583Z,2.30
2018-02-04T09:49:43.162Z,2.40
2018-02-04T09:52:10.690Z,2.40
2018-02-04T09:54:38.983Z,2.30
2018-02-04T09:57:07.423Z,2.30
2018-02-04T09:59:34.955Z,2.30
2018-02-04T10:02:03.270Z,2.30
2018-02-04T10:04:30.843Z,2.20
2018-02-04T10:06:58.372Z,2.20
2018-02-04T10:09:25.902Z,2.10
2018-02-04T10:11:53.486Z,2.00
2018-02-04T10:14:21.022Z,2.00
2018-02-04T10:16:48.594Z,1.90
2018-02-04T10:19:16.283Z,1.90
2018-02-04T10:21:43.811Z,1.70
2018-02-04T10:24:12.128Z,1.70
2018-02-04T10:26:40.388Z,1.70
2018-02-04T10:29:08.698Z,1.70
2018-02-04T10:31:36.238Z,1.70
2018-02-04T10:34:04.619Z,1.70
2018-02-04T10:36:32.231Z,1.60
2018-02-04T10:38:59.753Z,1.60
2018-02-04T10:41:27.334Z,1.60
2018-02-04T10:43:54.862Z,1.50
2018-02-04T10:46:22.396Z,1.30
2018-02-04T10:48:50.738Z,1.50
2018-02-04T10:54:22.839Z,1.50
2018-02-04T10:56:50.371Z,1.50
2018-02-04T10:59:17.906Z,1.60
2018-02-04T11:01:45.502Z,1.60
2018-02-04T11:04:13.830Z,1.70
2018-02-04T11:06:41.374Z,1.70
2018-02-04T11:09:09.728Z,1.70
2018-02-04T11:11:37.262Z,1.70
2018-02-04T11:14:04.793Z,1.80
2018-02-04T11:16:33.138Z,1.80
2018-02-04T11:19:00.663Z,1.80
2018-02-04T11:21:28.219Z,1.80
2018-02-04T11:23:56.558Z,1.90
2018-02-04T11:26:24.098Z,1.90
2018-02-04T11:28:51.641Z,1.80
2018-02-04T11:31:20.730Z,1.90
2018-02-04T11:33:48.278Z,1.90
2018-02-04T11:36:15.810Z,2.10
2018-02-04T11:38:44.169Z,2.20
2018-02-04T11:41:12.471Z,2.20
2018-02-04T11:43:40.007Z,2.20
2018-02-04T11:46:07.598Z,2.20
2018-02-04T11:48:35.935Z,2.20
2018-02-04T11:51:03.463Z,2.20
2018-02-04T11:53:31.085Z,2.10
2018-02-04T11:55:58.616Z,2.00
2018-02-04T11:58:26.919Z,2.10
2018-02-04T12:00:55.447Z,2.10
2018-02-04T12:03:23.019Z,2.10
2018-02-04T12:05:50.565Z,2.10
2018-02-04T12:08:18.165Z,2.20
2018-02-04T12:10:45.705Z,2.20
2018-02-04T12:13:13.239Z,2.20
2018-02-04T12:15:40.814Z,2.30
2018-02-04T12:18:08.349Z,2.40
2018-02-04T12:20:35.891Z,2.40
2018-02-04T12:23:03.462Z,2.40
2018-02-04T12:25:30.991Z,2.40
2018-02-04T12:27:58.523Z,2.40
2018-02-04T12:30:26.101Z,2.40
2018-02-04T12:32:53.623Z,2.40
2018-02-04T12:35:22.966Z,2.30
2018-02-04T12:37:50.547Z,2.30
2018-02-04T12:40:18.078Z,2.30
2018-02-04T12:42:46.367Z,2.30
2018-02-04T12:45:14.710Z,2.30
2018-02-04T12:47:42.243Z,2.30
2018-02-04T12:50:10.556Z,2.30
2018-02-04T12:52:38.130Z,2.30
2018-02-04T12:55:05.654Z,2.30
2018-02-04T12:57:33.951Z,2.20
2018-02-04T13:00:02.294Z,2.20
2018-02-04T13:02:29.833Z,2.20
2018-02-04T13:04:57.388Z,2.20
2018-02-04T13:07:25.746Z,2.20
2018-02-04T13:09:53.276Z,2.20
2018-02-04T13:12:20.858Z,2.20
2018-02-04T13:14:48.443Z,2.10
2018-02-04T13:17:15.976Z,2.10
2018-02-04T13:19:43.507Z,2.00
2018-02-04T13:22:11.083Z,2.00
2018-02-04T13:24:38.694Z,1.90
2018-02-04T13:27:06.232Z,1.90
2018-02-04T13:29:34.581Z,1.90
2018-02-04T13:32:02.120Z,1.90
2018-02-04T13:34:29.672Z,1.90
2018-02-04T13:36:58.007Z,1.80
2018-02-04T13:39:25.560Z,1.80
2018-02-04T13:41:53.147Z,1.80
2018-02-04T13:44:20.723Z,1.90
2018-02-04T13:46:48.258Z,1.80
2018-02-04T13:49:16.555Z,1.80
2018-02-04T13:51:44.254Z,1.80
2018-02-04T13:54:11.803Z,1.70
2018-02-04T13:56:39.326Z,1.80
2018-02-04T13:59:06.903Z,1.80
2018-02-04T14:01:34.447Z,1.90
2018-02-04T14:04:01.983Z,1.90
2018-02-04T14:06:29.554Z,2.00
2018-02-04T14:08:57.085Z,2.00
2018-02-04T14:11:25.402Z,2.10
2018-02-04T14:13:52.989Z,2.10
2018-02-04T14:16:20.531Z,2.10
2018-02-04T14:18:48.826Z,2.00
2018-02-04T14:21:17.307Z,2.00
2018-02-04T14:23:45.602Z,2.00
2018-02-04T14:26:13.899Z,2.00
2018-02-04T14:28:41.585Z,2.00
2018-02-04T14:31:09.110Z,1.90
2018-02-04T14:33:36.638Z,1.90
2018-02-04T14:36:04.214Z,1.80
2018-02-04T14:38:31.752Z,1.80
2018-02-04T14:41:00.072Z,1.80
2018-02-04T14:43:27.755Z,1.80
2018-02-04T14:45:55.311Z,1.70
2018-02-04T14:48:22.859Z,1.50
2018-02-04T14:50:50.450Z,1.50
2018-02-04T14:53:17.974Z,1.50
2018-02-04T14:55:46.283Z,1.50
2018-02-04T14:58:14.638Z,1.40
2018-02-04T15:00:42.192Z,1.40
2018-02-04T15:03:09.836Z,1.30
2018-02-04T15:05:37.415Z,1.40
2018-02-04T15:08:04.981Z,1.40
2018-02-04T15:10:32.512Z,1.40
2018-02-04T15:13:00.871Z,1.40
2018-02-04T15:15:28.423Z,1.40
2018-02-04T15:17:55.952Z,1.40
2018-02-04T15:20:24.283Z,1.40
2018-02-04T15:22:51.819Z,1.40
2018-02-04T15:25:20.125Z,1.50
2018-02-04T15:27:47.868Z,1.50
2018-02-04T15:30:15.476Z,1.50
2018-02-04T15:32:43.002Z,1.50
2018-02-04T15:35:10.600Z,1.50
2018-02-04T15:37:38.904Z,1.60
2018-02-04T15:40:06.447Z,1.60
2018-02-04T15:42:34.782Z,1.60
2018-02-04T15:45:02.374Z,1.60
2018-02-04T15:47:29.966Z,1.70
2018-02-04T15:49:57.540Z,1.70
2018-02-04T15:52:25.087Z,1.70
2018-02-04T15:54:52.730Z,1.70
2018-02-04T15:57:20.305Z,1.70
2018-02-04T15:59:47.850Z,1.80
2018-02-04T16:02:15.386Z,1.70
2018-02-04T16:04:42.958Z,1.70
2018-02-04T16:07:10.488Z,1.70
2018-02-04T16:09:38.015Z,1.70
2018-02-04T16:12:05.602Z,1.70
2018-02-04T16:14:33.900Z,1.70
2018-02-04T16:17:01.483Z,1.70
2018-02-04T16:19:29.104Z,1.70
2018-02-04T16:21:56.646Z,1.70
2018-02-04T16:24:24.174Z,1.70
2018-02-04T16:26:52.710Z,1.70
2018-02-04T16:29:20.246Z,1.70
2018-02-04T16:31:48.534Z,1.70
2018-02-04T16:34:16.890Z,1.70
2018-02-04T16:36:44.417Z,1.70
2018-02-04T16:39:11.952Z,1.70
2018-02-04T16:41:40.290Z,1.70
2018-02-04T16:44:07.835Z,1.70
2018-02-04T16:46:35.379Z,1.70
2018-02-04T16:49:03.798Z,1.70
2018-02-04T16:51:31.334Z,1.70
2018-02-04T16:53:58.869Z,1.70
2018-02-04T16:56:31.468Z,1.80
2018-02-04T16:58:59.106Z,1.80
2018-02-04T17:01:26.637Z,1.70
2018-02-04T17:03:54.210Z,1.70
2018-02-04T17:06:22.514Z,1.70
2018-02-04T17:08:50.816Z,1.80
2018-02-04T17:11:18.390Z,1.80
2018-02-04T17:13:46.272Z,1.90
2018-02-04T17:16:13.819Z,1.80
2018-02-04T17:18:42.163Z,1.80
2018-02-04T17:21:09.702Z,1.80
2018-02-04T17:23:37.261Z,1.80
2018-02-04T17:26:04.836Z,1.80
2018-02-04T17:28:32.366Z,1.80
2018-02-04T17:30:59.964Z,1.80
2018-02-04T17:33:28.292Z,1.80
2018-02-04T17:35:55.826Z,1.80
2018-02-04T17:38:23.371Z,1.80
2018-02-04T17:40:50.951Z,1.70
2018-02-04T17:43:18.491Z,1.70
2018-02-04T17:45:46.132Z,1.70
2018-02-04T17:48:13.711Z,1.70
2018-02-04T17:50:41.239Z,1.70
2018-02-04T17:53:08.766Z,1.70
2018-02-04T17:55:36.342Z,1.70
2018-02-04T17:58:03.870Z,1.60
2018-02-04T18:00:32.172Z,1.70
2018-02-04T18:02:59.750Z,1.70
2018-02-04T18:05:27.287Z,1.70
2018-02-04T18:07:55.604Z,1.70
2018-02-04T18:10:23.199Z,1.70
2018-02-04T18:12:50.730Z,1.70
2018-02-04T18:15:19.037Z,1.70
2018-02-04T18:17:46.611Z,1.70
2018-02-04T18:20:14.143Z,1.80
2018-02-04T18:22:41.681Z,2.10
2018-02-04T18:25:09.431Z,2.20
2018-02-04T18:27:36.962Z,2.30
2018-02-04T18:30:05.273Z,2.60
2018-02-04T18:32:32.967Z,2.60
2018-02-04T18:35:00.501Z,2.60
2018-02-04T18:37:28.800Z,2.50
2018-02-04T18:39:57.316Z,2.50
2018-02-04T18:42:24.858Z,2.40
2018-02-04T18:44:53.169Z,2.40
2018-02-04T18:47:20.746Z,2.40
2018-02-04T18:49:48.284Z,2.20
2018-02-04T18:52:16.597Z,2.00
2018-02-04T18:54:44.195Z,2.00
2018-02-04T18:57:11.722Z,2.00
2018-02-04T18:59:40.043Z,1.80
2018-02-04T19:02:07.719Z,1.80
2018-02-04T19:04:35.271Z,1.80
2018-02-04T19:07:02.810Z,1.70
2018-02-04T19:09:30.540Z,1.60
2018-02-04T19:11:58.120Z,1.60
2018-02-04T19:14:25.659Z,1.60
2018-02-04T19:16:53.247Z,1.60
2018-02-04T19:19:20.804Z,1.70
2018-02-04T19:21:48.335Z,1.70
2018-02-04T19:24:15.915Z,1.70
2018-02-04T19:26:44.218Z,1.70
2018-02-04T19:29:12.511Z,1.70
2018-02-04T19:31:40.611Z,1.70
2018-02-04T19:34:08.216Z,1.70
2018-02-04T19:36:35.751Z,2.60
2018-02-04T19:39:03.348Z,1.80
2018-02-04T19:41:30.883Z,1.80
2018-02-04T19:43:58.464Z,1.80
2018-02-04T19:46:26.136Z,1.80
2018-02-04T19:48:53.914Z,1.80
2018-02-04T19:51:21.513Z,1.80
2018-02-04T19:53:49.082Z,1.80
2018-02-04T19:56:16.758Z,1.90
2018-02-04T19:58:44.302Z,1.90
2018-02-04T20:01:11.977Z,1.90
2018-02-04T20:03:39.551Z,1.90
2018-02-04T20:06:07.137Z,2.00
2018-02-04T20:08:34.706Z,2.00
2018-02-04T20:11:02.246Z,1.90
2018-02-04T20:13:30.934Z,1.90
2018-02-04T20:15:58.835Z,2.00
2018-02-04T20:18:26.509Z,2.00
2018-02-04T20:20:54.094Z,2.00
2018-02-04T20:23:21.666Z,1.90
2018-02-04T20:25:49.200Z,1.90
2018-02-04T20:28:17.501Z,1.90
2018-02-04T20:30:45.073Z,1.90
2018-02-04T20:33:20.517Z,1.90
2018-02-04T20:35:48.931Z,1.80
2018-02-04T20:38:16.459Z,1.80
2018-02-04T20:40:43.992Z,1.90
2018-02-04T20:43:11.644Z,1.80
2018-02-04T20:45:39.175Z,1.80
2018-02-04T20:48:06.818Z,1.80
2018-02-04T20:50:34.411Z,1.80
2018-02-04T20:53:01.946Z,1.80
2018-02-04T20:55:29.482Z,1.70
2018-02-04T20:57:57.846Z,1.70
2018-02-04T21:00:25.387Z,1.70
2018-02-04T21:02:52.931Z,1.70
2018-02-04T21:05:20.605Z,1.70
2018-02-04T21:07:48.142Z,1.70
2018-02-04T21:10:16.451Z,1.60
2018-02-04T21:12:44.034Z,1.60
2018-02-04T21:15:11.567Z,1.60
2018-02-04T21:17:39.115Z,1.50
2018-02-04T21:20:08.315Z,1.50
2018-02-04T21:22:36.713Z,1.40
2018-02-04T21:25:04.555Z,1.40
2018-02-04T21:27:32.986Z,1.40
2018-02-04T21:30:00.535Z,1.40
2018-02-04T21:32:28.107Z,1.40
2018-02-04T21:34:55.706Z,1.30
2018-02-04T21:37:24.015Z,1.30
2018-02-04T21:39:51.542Z,1.30
2018-02-04T21:42:19.126Z,1.30
2018-02-04T21:44:46.764Z,2.40
2018-02-04T21:47:15.069Z,1.20
2018-02-04T21:49:42.652Z,1.20
2018-02-04T21:52:10.178Z,1.20
2018-02-04T21:54:38.495Z,1.20
2018-02-04T21:57:06.070Z,1.10
2018-02-04T21:59:33.606Z,1.20
2018-02-04T22:02:01.906Z,1.10
2018-02-04T22:04:29.539Z,1.10
2018-02-04T22:06:57.078Z,1.10
2018-02-04T22:09:24.606Z,1.10
2018-02-04T22:11:53.222Z,1.10
2018-02-04T22:14:20.754Z,1.10
2018-02-04T22:16:48.282Z,1.10
2018-02-04T22:19:15.858Z,1.00
2018-02-04T22:21:43.396Z,1.00
2018-02-04T22:24:11.006Z,1.10
2018-02-04T22:26:38.614Z,1.00
2018-02-04T22:29:06.138Z,1.10
2018-02-04T22:31:33.666Z,1.00
2018-02-04T22:34:02.011Z,1.00
2018-02-04T22:36:29.534Z,1.00
2018-02-04T22:38:57.827Z,1.00
2018-02-04T22:41:25.418Z,0.90
2018-02-04T22:43:52.946Z,1.00
2018-02-04T22:46:21.242Z,0.90
2018-02-04T22:48:49.660Z,0.90
2018-02-04T22:51:17.195Z,0.90
2018-02-04T22:53:44.718Z,0.90
2018-02-04T22:56:12.286Z,1.00
2018-02-04T22:58:39.866Z,1.00
2018-02-04T23:01:07.362Z,1.10
2018-02-04T23:03:34.941Z,1.00
2018-02-04T23:06:02.478Z,1.10
2018-02-04T23:08:30.014Z,1.10
2018-02-04T23:10:57.579Z,1.10
2018-02-04T23:13:25.865Z,1.10
2018-02-04T23:15:54.167Z,1.00
2018-02-04T23:18:21.736Z,1.00
2018-02-04T23:20:49.266Z,1.00
2018-02-04T23:23:16.790Z,1.10
2018-02-04T23:25:44.375Z,1.00
2018-02-04T23:28:11.901Z,0.90
2018-02-04T23:30:40.193Z,1.00
2018-02-04T23:33:08.530Z,0.90
2018-02-04T23:35:36.054Z,0.90
2018-02-04T23:38:03.612Z,0.90
2018-02-04T23:40:31.946Z,0.90
2018-02-04T23:42:59.530Z,0.90
2018-02-04T23:45:27.179Z,1.00
2018-02-04T23:47:54.762Z,1.00
2018-02-04T23:50:22.294Z,1.00
2018-02-04T23:52:50.627Z,1.00
2018-02-04T23:55:18.209Z,1.00
2018-02-04T23:57:45.860Z,1.00
